createdAt,value
2019-01-16T00:00:59.537Z,90.89
2019-01-16T00:01:59.489Z,90.68
2019-01-16T00:02:59.470Z,90.89
2019-01-16T00:03:59.483Z,90.68
2019-01-16T00:04:59.445Z,90.89
2019-01-16T00:05:59.437Z,91.71
2019-01-16T00:06:59.434Z,91.40
2019-01-16T00:07:59.420Z,91.71
2019-01-16T00:08:59.468Z,91.61
2019-01-16T00:09:59.395Z,91.92
2019-01-16T00:10:59.383Z,91.82
2019-01-16T00:11:59.380Z,91.50
2019-01-16T00:12:59.373Z,91.20
2019-01-16T00:13:59.350Z,91.20
2019-01-16T00:14:59.381Z,91.40
2019-01-16T00:15:59.370Z,91.71
2019-01-16T00:16:59.327Z,91.82
2019-01-16T00:17:59.362Z,91.92
2019-01-16T00:18:59.301Z,92.23
2019-01-16T00:19:59.315Z,91.71
2019-01-16T00:20:59.287Z,92.33
2019-01-16T00:21:59.270Z,91.92
2019-01-16T00:22:59.261Z,93.16
2019-01-16T00:23:59.246Z,93.47
2019-01-16T00:24:59.273Z,93.10
2019-01-16T00:25:59.236Z,93.41
2019-01-16T00:26:59.240Z,93.37
2019-01-16T00:27:59.207Z,93.78
2019-01-16T00:28:59.209Z,94.19
2019-01-16T00:29:59.215Z,94.09
2019-01-16T00:30:59.180Z,93.98
2019-01-16T00:31:59.174Z,94.29
2019-01-16T00:32:59.196Z,94.40
2019-01-16T00:33:59.176Z,94.81
2019-01-16T00:34:59.134Z,94.75
2019-01-16T00:35:59.147Z,94.34
2019-01-16T00:36:59.111Z,94.81
2019-01-16T00:37:59.141Z,93.98
2019-01-16T00:38:59.093Z,94.34
2019-01-16T00:39:59.100Z,95.27
2019-01-16T00:40:59.090Z,95.27
2019-01-16T00:41:59.070Z,94.71
2019-01-16T00:42:59.054Z,94.75
2019-01-16T00:43:59.040Z,94.85
2019-01-16T00:44:59.029Z,95.02
2019-01-16T00:45:59.043Z,95.17
2019-01-16T00:46:59.014Z,95.37
2019-01-16T00:47:59.002Z,95.37
2019-01-16T00:48:58.993Z,95.37
2019-01-16T00:49:58.979Z,95.57
2019-01-16T00:50:58.986Z,95.37
2019-01-16T00:51:58.960Z,95.22
2019-01-16T00:52:58.952Z,95.57
2019-01-16T00:53:58.936Z,95.27
2019-01-16T00:54:58.947Z,95.53
2019-01-16T00:55:58.980Z,95.68
2019-01-16T00:56:58.910Z,95.48
2019-01-16T00:57:58.915Z,95.06
2019-01-16T00:58:58.937Z,95.57
2019-01-16T00:59:58.891Z,95.68
2019-01-16T01:00:58.871Z,95.27
2019-01-16T01:01:58.883Z,95.48
2019-01-16T01:02:58.846Z,95.06
2019-01-16T01:03:58.833Z,95.06
2019-01-16T01:04:58.824Z,95.06
2019-01-16T01:05:58.828Z,94.96
2019-01-16T01:06:58.840Z,94.85
2019-01-16T01:07:58.837Z,95.17
2019-01-16T01:08:58.783Z,94.81
2019-01-16T01:09:58.767Z,95.17
2019-01-16T01:10:58.759Z,95.06
2019-01-16T01:11:58.770Z,94.96
2019-01-16T01:12:58.739Z,95.37
2019-01-16T01:13:58.727Z,94.85
2019-01-16T01:14:58.717Z,94.85
2019-01-16T01:15:58.725Z,94.96
2019-01-16T01:16:58.720Z,95.27
2019-01-16T01:17:58.721Z,94.96
2019-01-16T01:18:58.680Z,94.85
2019-01-16T01:19:58.664Z,95.37
2019-01-16T01:20:58.660Z,95.78
2019-01-16T01:21:58.675Z,95.37
2019-01-16T01:22:58.655Z,95.48
2019-01-16T01:23:58.629Z,95.57
2019-01-16T01:24:58.620Z,95.68
2019-01-16T01:25:58.613Z,95.27
2019-01-16T01:26:58.618Z,95.68
2019-01-16T01:27:58.586Z,95.57
2019-01-16T01:28:58.614Z,95.57
2019-01-16T01:29:58.563Z,95.78
2019-01-16T01:30:58.587Z,96.20
2019-01-16T01:31:58.565Z,96.09
2019-01-16T01:32:58.533Z,95.99
2019-01-16T01:33:58.520Z,95.99
2019-01-16T01:34:58.506Z,96.20
2019-01-16T01:35:58.502Z,96.24
2019-01-16T01:36:58.496Z,96.09
2019-01-16T01:37:58.527Z,96.14
2019-01-16T01:38:58.477Z,96.14
2019-01-16T01:39:58.456Z,96.14
2019-01-16T01:40:58.445Z,96.09
2019-01-16T01:41:58.468Z,96.45
2019-01-16T01:42:58.455Z,96.55
2019-01-16T01:43:58.417Z,96.51
2019-01-16T01:44:58.405Z,97.02
2019-01-16T01:45:58.397Z,97.13
2019-01-16T01:46:58.385Z,97.17
2019-01-16T01:47:58.372Z,97.13
2019-01-16T01:48:58.390Z,96.34
2019-01-16T01:49:58.358Z,96.61
2019-01-16T01:50:58.346Z,96.41
2019-01-16T01:51:58.351Z,96.20
2019-01-16T01:52:58.344Z,96.20
2019-01-16T01:53:58.335Z,96.14
2019-01-16T01:54:58.298Z,95.94
2019-01-16T01:55:58.326Z,96.20
2019-01-16T01:56:58.282Z,95.99
2019-01-16T01:57:58.284Z,96.09
2019-01-16T01:58:58.319Z,95.48
2019-01-16T01:59:58.249Z,95.99
2019-01-16T02:00:58.288Z,95.62
2019-01-16T02:01:58.224Z,95.99
2019-01-16T02:02:58.240Z,95.62
2019-01-16T02:03:58.230Z,95.68
2019-01-16T02:04:58.198Z,95.57
2019-01-16T02:05:58.194Z,95.68
2019-01-16T02:06:58.185Z,95.57
2019-01-16T02:07:58.187Z,95.10
2019-01-16T02:08:58.206Z,95.48
2019-01-16T02:09:58.151Z,95.37
2019-01-16T02:10:58.146Z,95.48
2019-01-16T02:11:58.150Z,94.85
2019-01-16T02:12:58.105Z,95.06
2019-01-16T02:13:58.097Z,95.06
2019-01-16T02:14:58.124Z,94.85
2019-01-16T02:15:58.089Z,94.96
2019-01-16T02:16:58.066Z,95.00
2019-01-16T02:17:58.058Z,95.27
2019-01-16T02:18:58.062Z,95.27
2019-01-16T02:19:58.030Z,95.17
2019-01-16T02:20:58.068Z,95.27
2019-01-16T02:21:58.013Z,95.06
2019-01-16T02:22:58.004Z,95.00
2019-01-16T02:23:58.014Z,95.17
2019-01-16T02:24:57.984Z,94.96
2019-01-16T02:25:57.996Z,94.96
2019-01-16T02:26:57.960Z,95.17
2019-01-16T02:27:57.951Z,95.17
2019-01-16T02:28:57.985Z,94.85
2019-01-16T02:29:57.977Z,94.85
2019-01-16T02:30:57.920Z,94.34
2019-01-16T02:31:57.906Z,95.06
2019-01-16T02:32:57.897Z,94.85
2019-01-16T02:33:57.888Z,94.13
2019-01-16T02:34:58.849Z,94.13
2019-01-16T02:35:57.867Z,94.96
2019-01-16T02:36:57.857Z,94.13
2019-01-16T02:37:57.846Z,93.93
2019-01-16T02:38:57.860Z,94.44
2019-01-16T02:39:57.839Z,94.96
2019-01-16T02:40:57.838Z,95.00
2019-01-16T02:41:57.801Z,94.96
2019-01-16T02:42:57.790Z,94.34
2019-01-16T02:43:57.782Z,94.44
2019-01-16T02:44:57.782Z,94.44
2019-01-16T02:45:57.789Z,93.82
2019-01-16T02:46:57.752Z,93.82
2019-01-16T02:47:57.740Z,93.97
2019-01-16T02:48:57.734Z,93.72
2019-01-16T02:49:57.731Z,93.72
2019-01-16T02:50:57.726Z,94.03
2019-01-16T02:51:57.693Z,93.97
2019-01-16T02:52:57.693Z,93.72
2019-01-16T02:53:57.693Z,93.20
2019-01-16T02:54:57.666Z,93.82
2019-01-16T02:55:57.858Z,93.82
2019-01-16T02:56:57.804Z,93.04
2019-01-16T03:01:38.175Z,92.79
2019-01-16T03:02:38.139Z,92.68
2019-01-16T03:03:38.213Z,92.07
2019-01-16T03:04:38.066Z,92.07
2019-01-16T03:05:38.063Z,91.44
2019-01-16T03:06:38.061Z,92.07
2019-01-16T03:07:38.022Z,91.49
2019-01-16T03:08:38.011Z,91.55
2019-01-16T03:09:38.006Z,90.83
2019-01-16T03:10:37.993Z,91.24
2019-01-16T03:11:38.011Z,91.03
2019-01-16T03:12:37.988Z,90.93
2019-01-16T03:13:38.064Z,90.87
2019-01-16T03:14:37.954Z,90.87
2019-01-16T03:15:37.935Z,90.77
2019-01-16T03:16:37.925Z,91.24
2019-01-16T03:17:37.955Z,90.72
2019-01-16T03:18:37.908Z,90.93
2019-01-16T03:19:37.900Z,91.13
2019-01-16T03:20:37.885Z,90.83
2019-01-16T03:21:37.870Z,90.93
2019-01-16T03:22:37.930Z,90.83
2019-01-16T03:23:37.852Z,90.62
2019-01-16T03:24:37.856Z,90.52
2019-01-16T03:25:37.835Z,90.41
2019-01-16T03:26:37.840Z,90.20
2019-01-16T03:27:37.826Z,91.03
2019-01-16T03:28:37.801Z,90.20
2019-01-16T03:29:37.787Z,90.00
2019-01-16T03:30:37.774Z,89.89
2019-01-16T03:31:37.768Z,90.10
2019-01-16T03:32:37.773Z,90.41
2019-01-16T03:33:37.745Z,90.45
2019-01-16T03:34:37.742Z,90.62
2019-01-16T03:35:37.720Z,90.56
2019-01-16T03:36:37.725Z,90.31
2019-01-16T03:37:37.723Z,90.52
2019-01-16T03:38:37.690Z,90.41
2019-01-16T03:39:37.683Z,90.52
2019-01-16T03:40:37.691Z,91.17
2019-01-16T03:41:37.657Z,91.03
2019-01-16T03:42:37.672Z,91.17
2019-01-16T03:43:37.637Z,90.31
2019-01-16T03:44:37.621Z,90.00
2019-01-16T03:45:37.628Z,90.41
2019-01-16T03:46:37.609Z,89.89
2019-01-16T03:47:37.589Z,90.00
2019-01-16T03:48:37.606Z,89.38
2019-01-16T03:49:37.578Z,89.79
2019-01-16T03:50:37.559Z,90.00
2019-01-16T03:51:37.553Z,90.04
2019-01-16T03:52:37.536Z,89.48
2019-01-16T03:53:37.546Z,89.11
2019-01-16T03:54:37.531Z,89.28
2019-01-16T03:55:37.516Z,89.07
2019-01-16T03:56:37.497Z,88.86
2019-01-16T03:57:37.491Z,88.65
2019-01-16T03:58:37.513Z,88.34
2019-01-16T03:59:37.464Z,88.65
2019-01-16T04:00:37.453Z,88.76
2019-01-16T04:01:37.449Z,89.17
2019-01-16T04:02:37.436Z,88.76
2019-01-16T04:03:37.454Z,89.28
2019-01-16T04:04:37.416Z,89.38
2019-01-16T04:05:37.410Z,89.28
2019-01-16T04:06:37.455Z,89.07
2019-01-16T04:07:37.394Z,89.17
2019-01-16T04:08:37.405Z,89.17
2019-01-16T04:09:37.359Z,88.96
2019-01-16T04:10:37.348Z,89.28
2019-01-16T04:11:37.357Z,89.59
2019-01-16T04:12:37.331Z,89.07
2019-01-16T04:13:37.321Z,88.76
2019-01-16T04:14:37.329Z,89.28
2019-01-16T04:15:37.296Z,89.42
2019-01-16T04:16:37.287Z,89.17
2019-01-16T04:17:37.283Z,88.24
2019-01-16T04:18:37.266Z,88.20
2019-01-16T04:19:37.273Z,88.55
2019-01-16T04:20:37.245Z,87.93
2019-01-16T04:21:37.233Z,87.52
2019-01-16T04:22:37.241Z,87.83
2019-01-16T04:23:37.216Z,87.58
2019-01-16T04:24:37.222Z,87.58
2019-01-16T04:25:37.225Z,87.58
2019-01-16T04:26:37.189Z,87.27
2019-01-16T04:27:37.174Z,87.00
2019-01-16T04:28:37.158Z,87.17
2019-01-16T04:29:37.173Z,87.07
2019-01-16T04:30:37.137Z,87.07
2019-01-16T04:31:37.125Z,86.86
2019-01-16T04:32:37.145Z,86.96
2019-01-16T04:33:37.102Z,87.07
2019-01-16T04:34:37.119Z,87.17
2019-01-16T04:35:37.083Z,86.38
2019-01-16T04:36:37.073Z,86.34
2019-01-16T04:37:37.102Z,86.44
2019-01-16T04:38:37.049Z,86.34
2019-01-16T04:39:37.046Z,86.86
2019-01-16T04:40:37.048Z,87.37
2019-01-16T04:41:37.042Z,86.86
2019-01-16T04:42:37.016Z,87.17
2019-01-16T04:43:37.007Z,87.27
2019-01-16T04:44:36.993Z,87.79
2019-01-16T04:45:37.901Z,87.37
2019-01-16T04:46:36.978Z,87.58
2019-01-16T04:47:36.957Z,87.83
2019-01-16T04:48:36.949Z,87.17
2019-01-16T04:49:36.959Z,87.07
2019-01-16T04:50:36.922Z,87.17
2019-01-16T04:51:36.924Z,87.27
2019-01-16T04:52:36.904Z,86.34
2019-01-16T04:53:36.891Z,86.28
2019-01-16T04:54:36.909Z,86.65
2019-01-16T04:55:36.879Z,86.86
2019-01-16T04:56:36.861Z,87.10
2019-01-16T04:57:36.858Z,86.18
2019-01-16T04:58:36.844Z,85.72
2019-01-16T04:59:36.829Z,86.03
2019-01-16T05:00:36.882Z,86.44
2019-01-16T05:01:36.833Z,86.86
2019-01-16T05:02:36.797Z,85.93
2019-01-16T05:03:36.787Z,85.55
2019-01-16T05:04:36.780Z,85.76
2019-01-16T05:05:36.797Z,85.72
2019-01-16T05:06:36.756Z,85.97
2019-01-16T05:07:36.743Z,85.35
2019-01-16T05:08:36.730Z,86.03
2019-01-16T05:09:36.785Z,85.35
2019-01-16T05:10:36.720Z,85.24
2019-01-16T05:11:36.708Z,85.41
2019-01-16T05:12:36.699Z,85.21
2019-01-16T05:13:36.685Z,85.10
2019-01-16T05:14:36.674Z,85.31
2019-01-16T05:15:36.682Z,85.41
2019-01-16T05:16:36.651Z,85.31
2019-01-16T05:17:36.637Z,85.45
2019-01-16T05:18:36.640Z,85.21
2019-01-16T05:19:38.677Z,84.59
2019-01-16T05:20:36.630Z,84.94
2019-01-16T05:21:36.598Z,85.62
2019-01-16T05:22:36.585Z,85.66
2019-01-16T05:23:36.588Z,85.41
2019-01-16T05:24:36.574Z,85.45
2019-01-16T05:25:36.578Z,84.69
2019-01-16T05:26:36.543Z,85.10
2019-01-16T05:27:36.529Z,85.24
2019-01-16T05:28:36.542Z,85.35
2019-01-16T05:29:36.511Z,84.07
2019-01-16T05:30:36.532Z,84.59
2019-01-16T05:31:44.115Z,83.90
2019-01-16T05:32:36.539Z,84.59
2019-01-16T05:33:36.577Z,84.79
2019-01-16T05:34:36.485Z,85.62
2019-01-16T05:35:36.465Z,85.00
2019-01-16T05:36:36.459Z,84.79
2019-01-16T05:37:36.430Z,83.90
2019-01-16T05:38:36.419Z,83.86
2019-01-16T05:39:36.407Z,84.17
2019-01-16T05:40:36.396Z,83.34
2019-01-16T05:41:36.425Z,83.34
2019-01-16T05:42:36.377Z,83.65
2019-01-16T05:43:36.369Z,83.76
2019-01-16T05:44:36.352Z,83.86
2019-01-16T05:45:36.341Z,83.97
2019-01-16T05:46:36.359Z,83.76
2019-01-16T05:47:36.325Z,83.25
2019-01-16T05:48:36.316Z,83.65
2019-01-16T05:49:36.299Z,83.55
2019-01-16T05:50:36.290Z,83.65
2019-01-16T05:51:36.309Z,82.21
2019-01-16T05:52:36.294Z,83.80
2019-01-16T05:53:36.257Z,81.80
2019-01-16T05:54:36.248Z,82.42
2019-01-16T05:55:36.233Z,83.25
2019-01-16T05:56:36.345Z,82.83
2019-01-16T05:59:07.768Z,83.28
2019-01-16T06:00:07.653Z,83.04
2019-01-16T06:02:17.494Z,82.83
2019-01-16T06:03:25.170Z,83.04
2019-01-16T06:04:17.431Z,82.31
2019-01-16T06:05:24.964Z,82.52
2019-01-16T06:06:17.429Z,81.70
2019-01-16T06:08:33.135Z,82.10
2019-01-16T06:09:40.662Z,82.52
2019-01-16T06:10:33.055Z,81.42
2019-01-16T06:11:40.723Z,82.52
2019-01-16T06:12:33.034Z,82.10
2019-01-16T06:13:40.681Z,82.31
2019-01-16T06:14:32.994Z,81.38
2019-01-16T06:15:40.558Z,81.38
2019-01-16T06:16:33.025Z,81.94
2019-01-16T06:17:40.536Z,81.38
2019-01-16T06:18:32.970Z,81.59
2019-01-16T06:19:41.543Z,81.73
2019-01-16T06:20:32.983Z,82.56
2019-01-16T06:21:40.510Z,81.90
2019-01-16T06:22:32.899Z,82.15
2019-01-16T06:23:40.500Z,81.94
2019-01-16T06:24:32.901Z,81.63
2019-01-16T06:26:42.699Z,82.15
2019-01-16T06:27:51.346Z,81.70
2019-01-16T06:28:42.641Z,81.73
2019-01-16T06:30:52.399Z,81.80
2019-01-16T06:31:59.906Z,81.32
2019-01-16T06:32:52.337Z,80.87
2019-01-16T06:33:59.940Z,80.39
2019-01-16T06:34:52.357Z,80.70
2019-01-16T06:36:00.885Z,81.21
2019-01-16T06:36:52.270Z,80.76
2019-01-16T06:37:52.328Z,80.76
2019-01-16T06:38:52.255Z,81.01
2019-01-16T06:39:52.185Z,80.39
2019-01-16T06:40:52.168Z,80.80
2019-01-16T06:41:52.155Z,81.01
2019-01-16T06:42:52.143Z,81.21
2019-01-16T06:43:52.132Z,80.18
2019-01-16T06:44:52.144Z,80.08
2019-01-16T06:45:52.125Z,79.63
2019-01-16T06:46:52.107Z,80.35
2019-01-16T06:47:52.092Z,79.66
2019-01-16T06:48:52.080Z,80.08
2019-01-16T06:49:52.092Z,80.39
2019-01-16T06:50:52.077Z,80.15
2019-01-16T06:51:52.050Z,80.29
2019-01-16T06:52:52.043Z,80.49
2019-01-16T06:53:52.027Z,80.80
2019-01-16T06:54:52.036Z,80.90
2019-01-16T06:55:52.042Z,80.90
2019-01-16T06:56:51.995Z,80.39
2019-01-16T06:57:51.989Z,80.08
2019-01-16T06:58:51.973Z,80.80
2019-01-16T06:59:51.992Z,80.49
2019-01-16T07:00:51.954Z,80.08
2019-01-16T07:01:51.949Z,80.70
2019-01-16T07:02:51.930Z,80.90
2019-01-16T07:03:51.922Z,80.39
2019-01-16T07:04:51.926Z,80.29
2019-01-16T07:05:51.922Z,79.87
2019-01-16T07:06:51.887Z,81.01
2019-01-16T07:07:51.878Z,79.56
2019-01-16T07:08:51.868Z,79.97
2019-01-16T07:09:51.864Z,79.87
2019-01-16T07:10:51.937Z,80.18
2019-01-16T07:11:51.894Z,80.70
2019-01-16T07:12:51.829Z,80.49
2019-01-16T07:13:51.829Z,79.97
2019-01-16T07:14:51.807Z,80.39
2019-01-16T07:15:51.813Z,80.70
2019-01-16T07:16:51.784Z,80.60
2019-01-16T07:17:51.771Z,80.80
2019-01-16T07:18:51.767Z,80.29
2019-01-16T07:19:51.774Z,80.18
2019-01-16T07:20:51.738Z,79.56
2019-01-16T07:21:51.729Z,79.15
2019-01-16T07:22:51.781Z,79.77
2019-01-16T07:23:51.706Z,79.97
2019-01-16T07:24:51.725Z,79.77
2019-01-16T07:25:51.692Z,80.29
2019-01-16T07:26:51.675Z,79.66
2019-01-16T07:27:51.665Z,79.66
2019-01-16T07:28:51.664Z,80.49
2019-01-16T07:29:51.670Z,79.39
2019-01-16T07:30:51.636Z,79.66
2019-01-16T07:31:51.661Z,80.01
2019-01-16T07:32:51.633Z,79.49
2019-01-16T07:33:51.611Z,80.43
2019-01-16T07:34:51.600Z,80.29
2019-01-16T07:35:51.612Z,79.25
2019-01-16T07:36:51.574Z,80.70
2019-01-16T07:37:51.561Z,80.60
2019-01-16T07:38:51.552Z,80.53
2019-01-16T07:39:51.538Z,80.32
2019-01-16T07:40:51.587Z,80.01
2019-01-16T07:41:51.515Z,80.11
2019-01-16T07:42:51.535Z,80.01
2019-01-16T07:43:51.933Z,79.91
2019-01-16T07:44:51.494Z,80.11
2019-01-16T07:45:51.516Z,79.49
2019-01-16T07:46:51.465Z,79.91
2019-01-16T07:47:51.458Z,79.70
2019-01-16T07:48:51.449Z,79.08
2019-01-16T07:49:51.436Z,79.25
2019-01-16T07:50:51.481Z,79.25
2019-01-16T07:51:51.419Z,79.15
2019-01-16T07:52:51.404Z,80.39
2019-01-16T07:53:51.391Z,79.56
2019-01-16T07:54:51.401Z,80.08
2019-01-16T07:55:51.395Z,79.91
2019-01-16T07:56:51.372Z,79.87
2019-01-16T07:57:51.351Z,80.11
2019-01-16T07:58:51.344Z,80.43
2019-01-16T07:59:51.330Z,79.91
2019-01-16T08:00:51.319Z,80.43
2019-01-16T08:01:51.331Z,80.01
2019-01-16T08:02:51.298Z,80.01
2019-01-16T08:03:51.288Z,80.01
2019-01-16T08:04:51.292Z,79.80
2019-01-16T08:05:51.265Z,80.22
2019-01-16T08:06:51.300Z,80.43
2019-01-16T08:07:51.254Z,79.91
2019-01-16T08:08:51.238Z,79.80
2019-01-16T08:09:51.275Z,80.01
2019-01-16T08:10:51.216Z,79.29
2019-01-16T08:11:51.218Z,80.43
2019-01-16T08:12:51.220Z,79.77
2019-01-16T08:13:51.208Z,80.11
2019-01-16T08:14:51.172Z,79.29
2019-01-16T08:15:51.164Z,79.29
2019-01-16T08:16:51.151Z,79.29
2019-01-16T08:17:51.163Z,80.01
2019-01-16T08:18:51.131Z,79.87
2019-01-16T08:19:51.142Z,79.05
2019-01-16T08:20:51.110Z,79.80
2019-01-16T08:21:51.102Z,79.49
2019-01-16T08:22:51.113Z,80.01
2019-01-16T08:23:51.085Z,79.91
2019-01-16T08:24:51.070Z,79.19
2019-01-16T08:25:51.069Z,79.70
2019-01-16T08:26:51.053Z,79.19
2019-01-16T08:27:51.063Z,79.80
2019-01-16T08:28:51.027Z,79.70
2019-01-16T08:29:51.020Z,79.08
2019-01-16T08:30:51.029Z,79.36
2019-01-16T08:31:51.008Z,79.29
2019-01-16T08:32:51.004Z,80.01
2019-01-16T08:33:50.983Z,80.11
2019-01-16T08:34:50.966Z,80.22
2019-01-16T08:35:50.955Z,79.70
2019-01-16T08:36:50.952Z,79.70
2019-01-16T08:37:50.954Z,80.11
2019-01-16T08:38:50.937Z,79.91
2019-01-16T08:39:51.014Z,80.22
2019-01-16T08:40:50.898Z,80.11
2019-01-16T08:41:50.898Z,79.70
2019-01-16T08:42:50.915Z,79.91
2019-01-16T08:43:50.880Z,79.91
2019-01-16T08:44:50.912Z,79.91
2019-01-16T08:45:50.848Z,79.19
2019-01-16T08:46:50.845Z,79.08
2019-01-16T08:47:50.852Z,79.49
2019-01-16T08:48:50.847Z,79.19
2019-01-16T08:49:50.827Z,79.49
2019-01-16T08:50:50.796Z,79.08
2019-01-16T08:51:50.787Z,78.67
2019-01-16T08:52:50.799Z,79.80
2019-01-16T08:53:50.778Z,78.98
2019-01-16T08:54:50.788Z,79.49
2019-01-16T08:55:50.747Z,79.08
2019-01-16T08:56:50.775Z,79.08
2019-01-16T08:57:50.763Z,80.53
2019-01-16T08:58:50.717Z,79.80
2019-01-16T08:59:50.710Z,79.29
2019-01-16T09:00:50.700Z,79.91
2019-01-16T09:01:50.688Z,78.98
2019-01-16T09:02:50.697Z,79.80
2019-01-16T09:03:50.674Z,79.80
2019-01-16T09:04:50.677Z,78.88
2019-01-16T09:05:50.647Z,78.98
2019-01-16T09:06:50.629Z,78.77
2019-01-16T09:07:50.619Z,78.77
2019-01-16T09:08:50.629Z,78.36
2019-01-16T09:09:50.633Z,78.05
2019-01-16T09:10:50.592Z,79.29
2019-01-16T09:11:50.583Z,79.08
2019-01-16T09:12:50.584Z,77.94
2019-01-16T09:13:50.627Z,78.56
2019-01-16T09:14:50.569Z,79.19
2019-01-16T09:15:50.540Z,78.98
2019-01-16T09:16:50.530Z,79.19
2019-01-16T09:17:50.518Z,78.77
2019-01-16T09:18:50.526Z,78.70
2019-01-16T09:19:50.501Z,78.88
2019-01-16T09:20:50.511Z,79.08
2019-01-16T09:21:50.486Z,79.08
2019-01-16T09:22:50.470Z,79.19
2019-01-16T09:23:50.472Z,78.15
2019-01-16T09:24:50.458Z,79.39
2019-01-16T09:25:50.435Z,79.49
2019-01-16T09:26:50.433Z,78.67
2019-01-16T09:27:50.410Z,78.36
2019-01-16T09:28:50.421Z,77.43
2019-01-16T09:29:50.399Z,78.46
2019-01-16T09:30:50.410Z,77.53
2019-01-16T09:31:50.377Z,78.46
2019-01-16T09:32:50.407Z,77.64
2019-01-16T09:33:50.390Z,77.94
2019-01-16T09:34:50.343Z,78.88
2019-01-16T09:35:50.344Z,78.98
2019-01-16T09:36:50.332Z,78.98
2019-01-16T09:37:50.316Z,78.56
2019-01-16T09:38:50.303Z,78.36
2019-01-16T09:39:50.310Z,77.84
2019-01-16T09:40:50.281Z,78.67
2019-01-16T09:41:50.281Z,78.05
2019-01-16T09:42:50.257Z,78.15
2019-01-16T09:43:50.244Z,78.05
2019-01-16T09:44:50.265Z,78.05
2019-01-16T09:45:50.228Z,77.53
2019-01-16T09:46:50.235Z,77.94
2019-01-16T09:47:50.215Z,77.84
2019-01-16T09:48:50.194Z,77.94
2019-01-16T09:49:50.258Z,77.74
2019-01-16T09:50:50.177Z,78.56
2019-01-16T09:51:50.177Z,77.77
2019-01-16T09:52:50.154Z,78.88
2019-01-16T09:53:50.909Z,78.19
2019-01-16T09:54:50.164Z,78.77
2019-01-16T09:55:50.122Z,78.67
2019-01-16T09:56:50.116Z,77.74
2019-01-16T09:57:50.097Z,77.15
2019-01-16T09:58:50.085Z,77.12
2019-01-16T09:59:50.157Z,77.74
2019-01-16T10:00:50.067Z,77.53
2019-01-16T10:01:50.064Z,76.70
2019-01-16T10:02:50.064Z,77.94
2019-01-16T10:03:50.039Z,77.53
2019-01-16T10:04:50.103Z,78.46
2019-01-16T10:05:50.017Z,78.46
2019-01-16T10:06:50.007Z,78.05
2019-01-16T10:07:49.997Z,78.67
2019-01-16T10:08:50.002Z,78.56
2019-01-16T10:09:49.980Z,78.98
2019-01-16T10:10:50.017Z,77.94
2019-01-16T10:11:49.965Z,77.84
2019-01-16T10:12:49.946Z,77.94
2019-01-16T10:13:49.932Z,78.05
2019-01-16T10:14:49.924Z,77.77
2019-01-16T10:15:50.005Z,77.53
2019-01-16T10:16:49.905Z,78.05
2019-01-16T10:17:49.896Z,78.36
2019-01-16T10:18:49.880Z,78.46
2019-01-16T10:19:49.875Z,78.98
2019-01-16T10:20:55.592Z,78.46
2019-01-16T10:21:50.848Z,78.67
2019-01-16T10:22:49.849Z,78.77
2019-01-16T10:23:49.895Z,79.08
2019-01-16T10:24:49.823Z,78.77
2019-01-16T10:25:49.835Z,79.29
2019-01-16T10:26:49.803Z,79.49
2019-01-16T10:27:49.812Z,78.77
2019-01-16T10:28:49.776Z,78.77
2019-01-16T10:29:49.770Z,78.77
2019-01-16T10:30:49.756Z,78.88
2019-01-16T10:31:49.785Z,78.67
2019-01-16T10:32:49.732Z,79.08
2019-01-16T10:33:49.735Z,78.67
2019-01-16T10:34:49.717Z,79.49
2019-01-16T10:35:49.708Z,80.43
2019-01-16T10:36:49.716Z,79.08
2019-01-16T10:37:49.702Z,79.19
2019-01-16T10:38:49.688Z,78.05
2019-01-16T10:39:49.672Z,78.67
2019-01-16T10:40:49.654Z,77.74
2019-01-16T10:41:49.683Z,79.08
2019-01-16T10:42:49.632Z,78.05
2019-01-16T10:43:49.643Z,78.15
2019-01-16T10:44:49.626Z,78.67
2019-01-16T10:45:49.623Z,79.80
2019-01-16T10:46:49.618Z,79.39
2019-01-16T10:47:49.582Z,79.39
2019-01-16T10:48:50.051Z,78.46
2019-01-16T10:49:49.603Z,79.19
2019-01-16T10:50:49.566Z,78.67
2019-01-16T10:51:49.574Z,78.39
2019-01-16T10:52:49.528Z,79.49
2019-01-16T10:53:49.513Z,79.29
2019-01-16T10:54:49.509Z,78.67
2019-01-16T10:55:49.506Z,79.29
2019-01-16T10:56:49.490Z,79.19
2019-01-16T10:57:49.496Z,79.02
2019-01-16T10:58:49.471Z,78.88
2019-01-16T10:59:49.455Z,77.36
2019-01-16T11:00:49.456Z,77.84
2019-01-16T11:01:49.450Z,78.77
2019-01-16T11:02:49.426Z,79.19
2019-01-16T11:03:49.421Z,78.25
2019-01-16T11:04:49.405Z,78.77
2019-01-16T11:05:49.421Z,79.08
2019-01-16T11:06:49.412Z,80.11
2019-01-16T11:07:49.372Z,79.53
2019-01-16T11:08:49.362Z,78.67
2019-01-16T11:09:49.364Z,78.36
2019-01-16T11:10:49.352Z,78.98
2019-01-16T11:11:49.333Z,79.39
2019-01-16T11:12:49.343Z,78.56
2019-01-16T11:13:49.394Z,79.49
2019-01-16T11:14:49.303Z,79.70
2019-01-16T11:15:49.285Z,79.19
2019-01-16T11:16:56.415Z,78.77
2019-01-16T11:17:50.286Z,78.77
2019-01-16T11:18:49.257Z,79.19
2019-01-16T11:19:49.325Z,78.88
2019-01-16T11:20:49.243Z,79.19
2019-01-16T11:21:49.228Z,79.33
2019-01-16T11:22:49.258Z,78.46
2019-01-16T11:23:49.202Z,79.08
2019-01-16T11:24:49.207Z,78.77
2019-01-16T11:25:49.186Z,79.19
2019-01-16T11:26:49.170Z,78.56
2019-01-16T11:27:49.192Z,77.84
2019-01-16T11:28:49.151Z,77.94
2019-01-16T11:29:49.201Z,78.05
2019-01-16T11:30:49.156Z,77.74
2019-01-16T11:31:49.123Z,78.56
2019-01-16T11:32:49.148Z,78.98
2019-01-16T11:33:49.129Z,78.46
2019-01-16T11:34:49.112Z,78.77
2019-01-16T11:35:49.075Z,78.15
2019-01-16T11:36:49.088Z,78.36
2019-01-16T11:37:49.060Z,78.88
2019-01-16T11:38:49.062Z,78.15
2019-01-16T11:39:49.037Z,77.74
2019-01-16T11:40:49.282Z,78.56
2019-01-16T11:41:49.015Z,79.08
2019-01-16T11:42:49.011Z,79.19
2019-01-16T11:43:49.017Z,79.49
2019-01-16T11:44:49.037Z,78.74
2019-01-16T11:45:48.976Z,77.74
2019-01-16T11:46:48.963Z,79.15
2019-01-16T11:47:49.008Z,79.19
2019-01-16T11:48:48.957Z,79.29
2019-01-16T11:49:48.959Z,79.08
2019-01-16T11:50:48.922Z,78.98
2019-01-16T11:51:48.913Z,79.08
2019-01-16T11:52:48.904Z,79.19
2019-01-16T11:53:48.899Z,78.63
2019-01-16T11:54:48.897Z,78.53
2019-01-16T11:55:48.899Z,79.19
2019-01-16T11:56:48.866Z,77.84
2019-01-16T11:57:48.850Z,79.08
2019-01-16T11:58:48.880Z,79.39
2019-01-16T11:59:48.851Z,79.91
2019-01-16T12:00:48.822Z,78.88
2019-01-16T12:01:48.804Z,78.25
2019-01-16T12:02:48.801Z,77.94
2019-01-16T12:03:48.811Z,78.56
2019-01-16T12:04:48.906Z,78.46
2019-01-16T12:05:48.767Z,79.49
2019-01-16T12:06:48.751Z,78.67
2019-01-16T12:07:48.740Z,79.49
2019-01-16T12:08:48.740Z,77.84
2019-01-16T12:09:48.747Z,77.43
2019-01-16T12:10:48.718Z,78.05
2019-01-16T12:11:48.702Z,79.25
2019-01-16T12:12:48.693Z,78.88
2019-01-16T12:13:48.682Z,78.36
2019-01-16T12:14:48.681Z,78.56
2019-01-16T12:15:48.677Z,77.43
2019-01-16T12:16:48.645Z,78.15
2019-01-16T12:17:48.640Z,77.94
2019-01-16T12:18:48.642Z,79.08
2019-01-16T12:19:48.643Z,79.49
2019-01-16T12:20:48.612Z,78.74
2019-01-16T12:21:48.593Z,78.98
2019-01-16T12:22:48.584Z,78.88
2019-01-16T12:23:48.572Z,79.39
2019-01-16T12:24:48.583Z,79.08
2019-01-16T12:25:48.553Z,79.56
2019-01-16T12:26:48.542Z,80.32
2019-01-16T12:27:48.528Z,78.53
2019-01-16T12:28:48.567Z,79.39
2019-01-16T12:29:48.519Z,77.94
2019-01-16T12:30:48.520Z,79.19
2019-01-16T12:31:48.490Z,78.84
2019-01-16T12:32:48.475Z,79.08
2019-01-16T12:33:48.470Z,78.42
2019-01-16T12:34:48.461Z,79.36
2019-01-16T12:35:48.485Z,78.88
2019-01-16T12:36:48.452Z,78.98
2019-01-16T12:37:48.453Z,79.29
2019-01-16T12:40:20.369Z,77.84
2019-01-16T12:42:41.216Z,77.94
2019-01-16T12:44:56.126Z,78.77
2019-01-16T12:47:28.769Z,79.05
2019-01-16T12:50:13.632Z,78.77
2019-01-16T12:51:13.611Z,79.05
2019-01-16T12:52:22.299Z,79.19
2019-01-16T12:53:13.676Z,78.42
2019-01-16T12:55:53.877Z,78.01
2019-01-16T12:58:13.456Z,79.15
2019-01-16T13:00:40.979Z,78.74
2019-01-16T13:02:57.924Z,79.46
2019-01-16T13:03:57.827Z,80.11
2019-01-16T13:06:07.610Z,79.36
2019-01-16T13:07:07.579Z,80.29
2019-01-16T13:08:07.585Z,79.36
2019-01-16T13:09:16.364Z,79.80
2019-01-16T13:10:07.502Z,79.80
2019-01-16T13:11:15.071Z,78.53
2019-01-16T13:12:16.920Z,78.94
2019-01-16T13:13:15.106Z,78.94
2019-01-16T13:14:07.449Z,77.81
2019-01-16T13:16:17.281Z,79.15
2019-01-16T13:17:17.208Z,79.46
2019-01-16T13:18:25.790Z,79.19